• Join FlightAware (Why Join?)
  • Login
  • US Flag 
08:22AM EDT


 

Airport Tracker/Info


-or-


 

Live Flight TrackerFlight Track Log ✈ CTL22 ✈ 02-May-2013 ✈ KAZO - KBKL

Flight Track Log - Related Links

Times and Time Zones

All times are in EDT time to prevent confusion due to time zone crossing. See the CTL22 flight status page for this flight to view local times or setup timezone preferences in your user account.

Time Position Orientation Groundspeed Altitude Reporting Facility
EDT Latitude Longitude Course Direction KTS MPH feet Rate Location/Type
08:07PM 42.1689 -85.3922 116° Southeast 126 145 4,300  Level Chicago Center
08:08PM 42.1533 -85.3469 115° Southeast 130 150 5,100 660 Climbing Chicago Center
08:09PM 42.1851 -85.2581 103° East  Level Estimated
08:09PM 42.1336 -85.2958 117° Southeast 130 150 5,700  Level Chicago Center
08:10PM 42.1751 -85.1994 103° East  Level Estimated
08:10PM 42.1181 -85.2536 116° Southeast 127 146 6,400  Level Chicago Center
08:11PM 42.1652 -85.1408 103° East  Level Estimated
08:11PM 42.1011 -85.2114 118° Southeast 127 146 7,100  Level Chicago Center
08:12PM 42.0828 -85.1636 117° Southeast 138 159 7,200  Climbing Chicago Center
08:13PM 42.0636 -85.1094 115° Southeast 153 176 7,100 -60 Descending Chicago Center
08:14PM 42.0458 -85.0528 113° Southeast 162 186 7,100 -60 Level Chicago Center
08:15PM 42.0336 -84.9942 106° East 163 188 7,000  Descending Chicago Center
08:16PM 42.0097 -84.9278 116° Southeast 163 188 7,100  Climbing Chicago Center
08:17PM 41.9922 -84.8722 113° Southeast 161 185 7,000 -60 Descending Chicago Center
08:18PM 41.9739 -84.8186 115° Southeast 159 183 7,000  Level Chicago Center
08:19PM 41.9539 -84.7681 118° Southeast 155 178 7,000  Level Chicago Center
08:20PM 41.9303 -84.7203 124° Southeast 153 176 7,100  Climbing Chicago Center
08:21PM 41.9131 -84.6675 114° Southeast 153 176 7,000  Descending Chicago Center
08:22PM 41.8925 -84.6033 113° Southeast 156 180 7,100  Climbing Chicago Center
08:23PM 41.8750 -84.5506 114° Southeast 155 178 7,000 -60 Descending Chicago Center
08:24PM 41.8567 -84.4972 115° Southeast 156 180 7,000  Level Chicago Center
08:25PM 41.8419 -84.4419 110° East 157 181 7,000  Level Chicago Center
08:26PM 41.8258 -84.3894 112° Southeast 155 178 7,100  Climbing Chicago Center
08:28PM 41.8067 -84.3389 117° Southeast 153 176 7,100 -60 Level Chicago Center
08:29PM 41.7872 -84.2717 111° Southeast 157 181 7,000  Descending Chicago Center
08:30PM 41.7683 -84.2194 116° Southeast 157 181 7,100  Climbing Chicago Center
08:32PM 41.7263 -84.1198 119° Southeast  Level FlightAware Approximate
08:39PM 41.5822 -83.7514 93° East  Level FlightAware Approximate
08:40PM 41.5801 -83.6919 93° East  Level FlightAware Approximate
08:41PM 41.5779 -83.6324 93° East  Level FlightAware Approximate
08:42PM 41.5758 -83.5729 93° East  Level FlightAware Approximate
08:43PM 41.5736 -83.5133 93° East  Level FlightAware Approximate
08:44PM 41.5713 -83.4538 93° East  Level FlightAware Approximate
08:45PM 41.5690 -83.3943 93° East  Level FlightAware Approximate
08:46PM 41.5667 -83.3348 93° East  Level FlightAware Approximate
08:47PM 41.5647 -83.2753 93° East  Level FlightAware Approximate
08:48PM 41.5626 -83.2158 93° East  Level FlightAware Approximate
08:49PM 41.5606 -83.1563 93° East  Level FlightAware Approximate
08:49PM 41.6472 -83.0758 92° East 166 191 7,000  Level Cleveland Center
08:50PM 41.5585 -83.0968 93° East  Level FlightAware Approximate
08:50PM 41.6381 -83.0142 101° East 166 191 7,000  Level Cleveland Center
08:51PM 41.5563 -83.0373 93° East  Level FlightAware Approximate
08:51PM 41.6289 -82.9528 101° East 162 186 7,000  Level Cleveland Center
08:52PM 41.5541 -82.9778 93° East  Level FlightAware Approximate
08:52PM 41.6303 -82.8944 88° East 163 188 7,000  Level Cleveland Center
08:53PM 41.5519 -82.9183 93° East  Level FlightAware Approximate
08:53PM 41.6211 -82.8303 101° East 171 197 6,600  Level Cleveland Center
08:54PM 41.5498 -82.8588 92° East  Level FlightAware Approximate
08:54PM 41.6142 -82.7550 97° East 182 209 5,800  Level Cleveland Center
08:55PM 41.6092 -82.6828 95° East 184 212 4,800 -840 Descending Cleveland Center
08:56PM 41.5981 -82.6156 102° East 186 214 4,100 -540 Descending Cleveland Center
08:57PM 41.5908 -82.5406 97° East 176 203 3,700 -540 Descending Cleveland Center
08:58PM 41.5878 -82.4850 94° East 180 207 3,100 -540 Descending Cleveland Center
08:59PM 41.5886 -82.4267 89° East 160 184 2,800 -60 Descending Cleveland Center
09:00PM 41.5833 -82.3736 98° East 142 163 3,000  Climbing Cleveland Center
09:01PM 41.5800 -82.3097 94° East 144 166 2,800 -480 Descending Cleveland Center
09:02PM 41.5811 -82.2403 89° East 167 192 2,000 -480 Descending Cleveland Center
09:03PM 41.5778 -82.1819 94° East 160 184 1,800 -240 Descending Cleveland Center
09:04PM 41.5764 -82.1264 92° East 141 162 1,600 -120 Descending Cleveland Center
09:05PM 41.5706 -82.0903 102° East 144 166 1,600  Level Cleveland Center
09:06PM 41.5569 -82.0289 106° East 135 155 1,600  Level Cleveland Center
09:07PM 41.5533 -81.9789 95° East 137 158 1,600  Level Cleveland Center
09:08PM 41.5433 -81.9314 106° East 134 154 1,600  Level Cleveland Center
09:10PM 41.5336 -81.8786 104° East 138 159 1,600 -60 Level Cleveland Center
09:10PM 41.5278 -81.8369 101° East 138 159 1,500 -300 Descending Cleveland Center
09:11PM 41.5200 -81.7811 101° East 154 177 1,100 -240 Descending Cleveland Center
09:12PM 41.5122 -81.7339 102° East 123 142 1,100  Level Cleveland Center
09:14PM 41.5175 -81.6833 85° East  Level Estimated
09:21PM 41.5175 -81.6833 95° East  Level Estimated